sensor_id;sensor_type;location;lat;lon;timestamp;pressure;altitude;pressure_sealevel;temperature;humidity
22550;BME280;11441;57.164;-2.120;2023-07-08T00:01:17;101125.72;;;15.34;100.00
22550;BME280;11441;57.164;-2.120;2023-07-08T00:03:44;101118.59;;;15.33;100.00
22550;BME280;11441;57.164;-2.120;2023-07-08T00:06:18;101112.22;;;15.32;100.00
22550;BME280;11441;57.164;-2.120;2023-07-08T00:08:45;101119.06;;;15.08;100.00
22550;BME280;11441;57.164;-2.120;2023-07-08T00:11:13;101116.94;;;15.28;100.00
22550;BME280;11441;57.164;-2.120;2023-07-08T00:13:40;101114.53;;;15.26;100.00
22550;BME280;11441;57.164;-2.120;2023-07-08T00:16:12;101113.88;;;15.37;100.00
22550;BME280;11441;57.164;-2.120;2023-07-08T00:18:39;101118.47;;;15.25;100.00
22550;BME280;11441;57.164;-2.120;2023-07-08T00:21:11;101116.00;;;15.17;100.00
22550;BME280;11441;57.164;-2.120;2023-07-08T00:23:49;101114.53;;;15.26;100.00
22550;BME280;11441;57.164;-2.120;2023-07-08T00:26:29;101120.56;;;15.32;100.00
22550;BME280;11441;57.164;-2.120;2023-07-08T00:28:59;101112.81;;;15.15;100.00
22550;BME280;11441;57.164;-2.120;2023-07-08T00:31:44;101109.63;;;15.13;100.00
22550;BME280;11441;57.164;-2.120;2023-07-08T00:34:11;101108.00;;;15.12;100.00
22550;BME280;11441;57.164;-2.120;2023-07-08T00:36:38;101102.38;;;15.04;100.00
22550;BME280;11441;57.164;-2.120;2023-07-08T00:39:17;101111.88;;;15.03;100.00
22550;BME280;11441;57.164;-2.120;2023-07-08T00:41:45;101117.06;;;15.05;100.00
22550;BME280;11441;57.164;-2.120;2023-07-08T00:44:31;101118.31;;;15.11;100.00
22550;BME280;11441;57.164;-2.120;2023-07-08T00:47:16;101118.13;;;14.97;100.00
22550;BME280;11441;57.164;-2.120;2023-07-08T00:49:47;101123.56;;;14.89;100.00
22550;BME280;11441;57.164;-2.120;2023-07-08T00:54:55;101110.78;;;14.81;100.00
22550;BME280;11441;57.164;-2.120;2023-07-08T00:57:25;101113.28;;;14.90;100.00
22550;BME280;11441;57.164;-2.120;2023-07-08T01:00:00;101106.97;;;14.93;100.00
22550;BME280;11441;57.164;-2.120;2023-07-08T01:03:05;101116.41;;;14.88;100.00
22550;BME280;11441;57.164;-2.120;2023-07-08T01:05:32;101113.28;;;14.90;100.00
22550;BME280;11441;57.164;-2.120;2023-07-08T01:08:02;101098.41;;;14.75;100.00
22550;BME280;11441;57.164;-2.120;2023-07-08T01:10:38;101108.84;;;14.85;100.00
22550;BME280;11441;57.164;-2.120;2023-07-08T01:13:08;101101.19;;;14.75;100.00
22550;BME280;11441;57.164;-2.120;2023-07-08T01:15:41;101100.38;;;14.75;100.00
22550;BME280;11441;57.164;-2.120;2023-07-08T01:18:10;101113.63;;;14.88;100.00
22550;BME280;11441;57.164;-2.120;2023-07-08T01:20:39;101108.84;;;14.85;100.00
22550;BME280;11441;57.164;-2.120;2023-07-08T01:23:23;101110.13;;;14.92;100.00
22550;BME280;11441;57.164;-2.120;2023-07-08T01:25:51;101099.81;;;14.92;100.00
22550;BME280;11441;57.164;-2.120;2023-07-08T01:28:19;101106.75;;;15.05;100.00
22550;BME280;11441;57.164;-2.120;2023-07-08T01:30:48;101105.41;;;14.96;100.00
22550;BME280;11441;57.164;-2.120;2023-07-08T01:33:19;101108.16;;;14.92;100.00
22550;BME280;11441;57.164;-2.120;2023-07-08T01:35:48;101106.06;;;14.85;100.00
22550;BME280;11441;57.164;-2.120;2023-07-08T01:38:21;101104.47;;;14.84;100.00
22550;BME280;11441;57.164;-2.120;2023-07-08T01:40:54;101113.66;;;14.62;100.00
22550;BME280;11441;57.164;-2.120;2023-07-08T01:43:21;101107.00;;;14.66;100.00
22550;BME280;11441;57.164;-2.120;2023-07-08T01:45:49;101113.53;;;14.81;100.00
22550;BME280;11441;57.164;-2.120;2023-07-08T01:48:19;101108.38;;;14.80;100.00
22550;BME280;11441;57.164;-2.120;2023-07-08T01:51:04;101107.56;;;14.79;100.00
22550;BME280;11441;57.164;-2.120;2023-07-08T01:53:37;101097.22;;;14.76;100.00
22550;BME280;11441;57.164;-2.120;2023-07-08T01:56:05;101105.59;;;14.80;100.00
22550;BME280;11441;57.164;-2.120;2023-07-08T01:58:33;101099.78;;;14.88;100.00
22550;BME280;11441;57.164;-2.120;2023-07-08T02:01:19;101091.47;;;14.88;100.00
22550;BME280;11441;57.164;-2.120;2023-07-08T02:03:46;101092.47;;;14.77;100.00
22550;BME280;11441;57.164;-2.120;2023-07-08T02:06:13;101077.88;;;14.80;100.00
22550;BME280;11441;57.164;-2.120;2023-07-08T02:08:40;101088.97;;;14.80;100.00
22550;BME280;11441;57.164;-2.120;2023-07-08T02:11:07;101096.53;;;14.83;100.00
22550;BME280;11441;57.164;-2.120;2023-07-08T02:13:34;101083.03;;;14.81;100.00
22550;BME280;11441;57.164;-2.120;2023-07-08T02:16:01;101091.34;;;14.81;100.00
22550;BME280;11441;57.164;-2.120;2023-07-08T02:18:28;101077.16;;;14.86;100.00
22550;BME280;11441;57.164;-2.120;2023-07-08T02:21:17;101082.25;;;14.81;100.00
22550;BME280;11441;57.164;-2.120;2023-07-08T02:23:49;101075.47;;;14.78;100.00
22550;BME280;11441;57.164;-2.120;2023-07-08T02:26:36;101083.38;;;14.76;100.00
22550;BME280;11441;57.164;-2.120;2023-07-08T02:29:03;101072.69;;;14.78;100.00
22550;BME280;11441;57.164;-2.120;2023-07-08T02:31:30;101076.34;;;14.82;100.00
22550;BME280;11441;57.164;-2.120;2023-07-08T02:33:57;101079.53;;;14.84;100.00
22550;BME280;11441;57.164;-2.120;2023-07-08T02:36:24;101085.41;;;14.79;100.00
22550;BME280;11441;57.164;-2.120;2023-07-08T02:38:51;101078.34;;;14.85;100.00
22550;BME280;11441;57.164;-2.120;2023-07-08T02:41:35;101082.34;;;14.88;100.00
22550;BME280;11441;57.164;-2.120;2023-07-08T02:44:02;101072.78;;;14.85;100.00
22550;BME280;11441;57.164;-2.120;2023-07-08T02:46:30;101074.03;;;14.88;100.00
22550;BME280;11441;57.164;-2.120;2023-07-08T02:48:58;101062.44;;;14.79;100.00
22550;BME280;11441;57.164;-2.120;2023-07-08T02:51:26;101071.91;;;14.78;100.00
22550;BME280;11441;57.164;-2.120;2023-07-08T02:53:54;101060.03;;;14.77;100.00
22550;BME280;11441;57.164;-2.120;2023-07-08T02:56:39;101059.81;;;14.63;100.00
22550;BME280;11441;57.164;-2.120;2023-07-08T02:59:06;101058.59;;;14.60;100.00
22550;BME280;11441;57.164;-2.120;2023-07-08T03:01:33;101057.03;;;14.63;100.00
22550;BME280;11441;57.164;-2.120;2023-07-08T03:04:09;101052.25;;;14.60;100.00
22550;BME280;11441;57.164;-2.120;2023-07-08T03:06:41;101059.31;;;14.57;100.00
22550;BME280;11441;57.164;-2.120;2023-07-08T03:09:09;101057.28;;;14.54;100.00
22550;BME280;11441;57.164;-2.120;2023-07-08T03:11:36;101052.53;;;14.55;100.00
22550;BME280;11441;57.164;-2.120;2023-07-08T03:14:20;101047.97;;;14.66;100.00
22550;BME280;11441;57.164;-2.120;2023-07-08T03:16:48;101048.06;;;14.73;100.00
22550;BME280;11441;57.164;-2.120;2023-07-08T03:19:15;101050.00;;;14.69;100.00
22550;BME280;11441;57.164;-2.120;2023-07-08T03:21:44;101049.59;;;14.67;100.00
22550;BME280;11441;57.164;-2.120;2023-07-08T03:24:11;101053.56;;;14.69;100.00
22550;BME280;11441;57.164;-2.120;2023-07-08T03:26:42;101053.56;;;14.69;100.00
22550;BME280;11441;57.164;-2.120;2023-07-08T03:29:18;101050.19;;;14.57;100.00
22550;BME280;11441;57.164;-2.120;2023-07-08T03:31:46;101051.13;;;14.64;100.00
22550;BME280;11441;57.164;-2.120;2023-07-08T03:34:17;101046.34;;;14.61;100.00
22550;BME280;11441;57.164;-2.120;2023-07-08T03:36:49;101044.78;;;14.64;100.00
22550;BME280;11441;57.164;-2.120;2023-07-08T03:39:35;101050.31;;;14.64;100.00
22550;BME280;11441;57.164;-2.120;2023-07-08T03:42:02;101053.56;;;14.69;100.00
22550;BME280;11441;57.164;-2.120;2023-07-08T03:44:30;101053.34;;;14.55;100.00
22550;BME280;11441;57.164;-2.120;2023-07-08T03:46:58;101050.88;;;14.50;100.00
22550;BME280;11441;57.164;-2.120;2023-07-08T03:49:25;101047.69;;;14.48;100.00
22550;BME280;11441;57.164;-2.120;2023-07-08T03:51:54;101040.63;;;14.54;100.00
22550;BME280;11441;57.164;-2.120;2023-07-08T03:54:23;101048.78;;;14.66;100.00
22550;BME280;11441;57.164;-2.120;2023-07-08T03:56:54;101043.25;;;14.66;100.00
22550;BME280;11441;57.164;-2.120;2023-07-08T03:59:39;101045.19;;;14.66;100.00
22550;BME280;11441;57.164;-2.120;2023-07-08T04:02:10;101038.13;;;14.68;100.00
22550;BME280;11441;57.164;-2.120;2023-07-08T04:07:42;101040.03;;;14.64;100.00
22550;BME280;11441;57.164;-2.120;2023-07-08T04:10:10;101051.97;;;14.68;100.00
22550;BME280;11441;57.164;-2.120;2023-07-08T04:12:38;101052.50;;;14.78;100.00
22550;BME280;11441;57.164;-2.120;2023-07-08T04:15:53;101051.28;;;14.75;100.00
22550;BME280;11441;57.164;-2.120;2023-07-08T04:18:21;101048.94;;;14.77;100.00
22550;BME280;11441;57.164;-2.120;2023-07-08T04:20:48;101038.59;;;14.74;100.00
22550;BME280;11441;57.164;-2.120;2023-07-08T04:23:22;101037.47;;;14.79;100.00
22550;BME280;11441;57.164;-2.120;2023-07-08T04:25:51;101046.94;;;14.78;100.00
22550;BME280;11441;57.164;-2.120;2023-07-08T04:28:37;101042.63;;;14.80;100.00
22550;BME280;11441;57.164;-2.120;2023-07-08T04:31:04;101045.09;;;14.89;100.00
22550;BME280;11441;57.164;-2.120;2023-07-08T04:33:31;101035.16;;;14.84;100.00
22550;BME280;11441;57.164;-2.120;2023-07-08T04:35:58;101027.22;;;14.83;100.00
22550;BME280;11441;57.164;-2.120;2023-07-08T04:38:26;101039.28;;;14.98;100.00
22550;BME280;11441;57.164;-2.120;2023-07-08T04:40:53;101028.97;;;14.95;100.00
22550;BME280;11441;57.164;-2.120;2023-07-08T04:43:37;101044.06;;;15.01;100.00
22550;BME280;11441;57.164;-2.120;2023-07-08T04:46:15;101033.03;;;15.04;100.00
22550;BME280;11441;57.164;-2.120;2023-07-08T04:48:44;101033.84;;;15.05;100.00
22550;BME280;11441;57.164;-2.120;2023-07-08T04:51:12;101029.03;;;15.02;100.00
22550;BME280;11441;57.164;-2.120;2023-07-08T04:53:39;101041.38;;;15.08;100.00
22550;BME280;11441;57.164;-2.120;2023-07-08T04:56:07;101030.34;;;15.12;100.00
22550;BME280;11441;57.164;-2.120;2023-07-08T04:58:34;101039.88;;;15.14;100.00
22550;BME280;11441;57.164;-2.120;2023-07-08T05:01:01;101031.16;;;15.12;100.00
22550;BME280;11441;57.164;-2.120;2023-07-08T05:03:28;101032.72;;;15.13;100.00
22550;BME280;11441;57.164;-2.120;2023-07-08T05:05:55;101040.31;;;15.16;100.00
22550;BME280;11441;57.164;-2.120;2023-07-08T05:08:40;101041.66;;;15.30;100.00
22550;BME280;11441;57.164;-2.120;2023-07-08T05:11:07;101035.25;;;15.25;100.00
22550;BME280;11441;57.164;-2.120;2023-07-08T05:13:34;101036.06;;;15.26;100.00
22550;BME280;11441;57.164;-2.120;2023-07-08T05:16:01;101032.16;;;15.34;100.00
22550;BME280;11441;57.164;-2.120;2023-07-08T05:18:28;101036.16;;;15.33;100.00
22550;BME280;11441;57.164;-2.120;2023-07-08T05:20:55;101040.47;;;15.31;100.00
22550;BME280;11441;57.164;-2.120;2023-07-08T05:23:22;101033.34;;;15.30;100.00
22550;BME280;11441;57.164;-2.120;2023-07-08T05:25:50;101033.81;;;15.39;100.00
22550;BME280;11441;57.164;-2.120;2023-07-08T05:28:17;101037.00;;;15.41;100.00
22550;BME280;11441;57.164;-2.120;2023-07-08T05:30:44;101023.31;;;15.21;100.00
22550;BME280;11441;57.164;-2.120;2023-07-08T05:33:11;101025.03;;;15.33;100.00
22550;BME280;11441;57.164;-2.120;2023-07-08T05:35:38;101025.94;;;15.44;100.00
22550;BME280;11441;57.164;-2.120;2023-07-08T05:38:05;101027.91;;;15.40;100.00
22550;BME280;11441;57.164;-2.120;2023-07-08T05:40:31;101024.31;;;15.40;100.00
22550;BME280;11441;57.164;-2.120;2023-07-08T05:42:58;101023.53;;;15.43;100.00
22550;BME280;11441;57.164;-2.120;2023-07-08T05:45:25;101022.13;;;15.60;100.00
22550;BME280;11441;57.164;-2.120;2023-07-08T05:48:11;101033.63;;;15.58;100.00
22550;BME280;11441;57.164;-2.120;2023-07-08T05:50:38;101031.38;;;15.71;100.00
22550;BME280;11441;57.164;-2.120;2023-07-08T05:53:09;101034.91;;;15.68;100.00
22550;BME280;11441;57.164;-2.120;2023-07-08T05:55:36;101035.47;;;15.81;100.00
22550;BME280;11441;57.164;-2.120;2023-07-08T05:58:03;101050.03;;;15.74;100.00
22550;BME280;11441;57.164;-2.120;2023-07-08T06:00:55;101041.47;;;15.87;100.00
22550;BME280;11441;57.164;-2.120;2023-07-08T06:03:23;101028.78;;;15.89;100.00
22550;BME280;11441;57.164;-2.120;2023-07-08T06:05:49;101049.41;;;15.88;100.00
22550;BME280;11441;57.164;-2.120;2023-07-08T06:08:16;101048.25;;;15.93;100.00
22550;BME280;11441;57.164;-2.120;2023-07-08T06:10:44;101051.13;;;16.03;100.00
22550;BME280;11441;57.164;-2.120;2023-07-08T06:13:12;101048.41;;;16.11;100.00
22550;BME280;11441;57.164;-2.120;2023-07-08T06:15:39;101044.06;;;16.13;100.00
22550;BME280;11441;57.164;-2.120;2023-07-08T06:18:08;101046.91;;;16.20;100.00
22550;BME280;11441;57.164;-2.120;2023-07-08T06:20:35;101042.53;;;16.23;100.00
22550;BME280;11441;57.164;-2.120;2023-07-08T06:23:02;101037.47;;;16.32;100.00
22550;BME280;11441;57.164;-2.120;2023-07-08T06:25:30;101037.50;;;16.36;100.00
22550;BME280;11441;57.164;-2.120;2023-07-08T06:27:57;101048.25;;;16.41;100.00
22550;BME280;11441;57.164;-2.120;2023-07-08T06:30:23;101042.31;;;16.43;100.00
22550;BME280;11441;57.164;-2.120;2023-07-08T06:32:50;101055.03;;;16.51;100.00
22550;BME280;11441;57.164;-2.120;2023-07-08T06:35:18;101056.28;;;16.53;100.00
22550;BME280;11441;57.164;-2.120;2023-07-08T06:38:03;101066.56;;;16.49;100.00
22550;BME280;11441;57.164;-2.120;2023-07-08T06:40:30;101071.31;;;16.49;100.00
22550;BME280;11441;57.164;-2.120;2023-07-08T06:42:57;101073.78;;;16.61;100.00
22550;BME280;11441;57.164;-2.120;2023-07-08T06:45:40;101077.84;;;16.74;100.00
22550;BME280;11441;57.164;-2.120;2023-07-08T06:48:07;101067.13;;;16.76;100.00
22550;BME280;11441;57.164;-2.120;2023-07-08T06:50:34;101066.34;;;16.76;100.00
22550;BME280;11441;57.164;-2.120;2023-07-08T06:53:01;101075.56;;;16.87;100.00
22550;BME280;11441;57.164;-2.120;2023-07-08T06:55:28;101077.63;;;17.05;100.00
22550;BME280;11441;57.164;-2.120;2023-07-08T06:57:56;101084.81;;;17.09;100.00
22550;BME280;11441;57.164;-2.120;2023-07-08T07:00:23;101082.03;;;17.13;100.00
22550;BME280;11441;57.164;-2.120;2023-07-08T07:02:50;101083.63;;;17.10;100.00
22550;BME280;11441;57.164;-2.120;2023-07-08T07:05:17;101084.88;;;17.24;100.00
22550;BME280;11441;57.164;-2.120;2023-07-08T07:07:47;101071.78;;;17.31;100.00
22550;BME280;11441;57.164;-2.120;2023-07-08T07:10:14;101054.94;;;16.92;100.00
22550;BME280;11441;57.164;-2.120;2023-07-08T07:12:41;101081.63;;;17.07;100.00
22550;BME280;11441;57.164;-2.120;2023-07-08T07:15:08;101085.63;;;17.13;100.00
22550;BME280;11441;57.164;-2.120;2023-07-08T07:17:35;101092.41;;;17.16;100.00
22550;BME280;11441;57.164;-2.120;2023-07-08T07:20:03;101086.88;;;17.27;100.00
22550;BME280;11441;57.164;-2.120;2023-07-08T07:22:30;101087.31;;;17.36;100.00
22550;BME280;11441;57.164;-2.120;2023-07-08T07:24:58;101086.88;;;17.23;100.00
22550;BME280;11441;57.164;-2.120;2023-07-08T07:27:25;101088.44;;;17.21;100.00
22550;BME280;11441;57.164;-2.120;2023-07-08T07:29:52;101090.81;;;17.22;100.00
22550;BME280;11441;57.164;-2.120;2023-07-08T07:32:22;101089.31;;;17.46;100.00
22550;BME280;11441;57.164;-2.120;2023-07-08T07:34:51;101086.16;;;17.51;100.00
22550;BME280;11441;57.164;-2.120;2023-07-08T07:37:20;101075.03;;;17.62;100.00
22550;BME280;11441;57.164;-2.120;2023-07-08T07:39:47;101089.00;;;17.73;100.00
22550;BME280;11441;57.164;-2.120;2023-07-08T07:42:15;101098.16;;;17.77;100.00
22550;BME280;11441;57.164;-2.120;2023-07-08T07:44:43;101097.78;;;17.82;100.00
22550;BME280;11441;57.164;-2.120;2023-07-08T07:47:11;101103.41;;;17.97;100.00
22550;BME280;11441;57.164;-2.120;2023-07-08T07:49:56;101106.19;;;17.89;100.00
22550;BME280;11441;57.164;-2.120;2023-07-08T07:52:24;101102.22;;;18.08;100.00
22550;BME280;11441;57.164;-2.120;2023-07-08T07:54:51;101098.22;;;18.06;100.00
22550;BME280;11441;57.164;-2.120;2023-07-08T07:57:18;101105.78;;;18.13;100.00
22550;BME280;11441;57.164;-2.120;2023-07-08T07:59:46;101110.19;;;18.21;100.00
22550;BME280;11441;57.164;-2.120;2023-07-08T08:02:16;101096.63;;;17.90;100.00
22550;BME280;11441;57.164;-2.120;2023-07-08T08:04:43;101103.78;;;18.06;100.00
22550;BME280;11441;57.164;-2.120;2023-07-08T08:07:10;101098.66;;;18.12;100.00
22550;BME280;11441;57.164;-2.120;2023-07-08T08:09:37;101105.78;;;18.20;100.00
22550;BME280;11441;57.164;-2.120;2023-07-08T08:12:04;101103.03;;;18.38;100.00
22550;BME280;11441;57.164;-2.120;2023-07-08T08:14:31;101107.78;;;18.23;100.00
22550;BME280;11441;57.164;-2.120;2023-07-08T08:16:58;101112.19;;;18.27;100.00
22550;BME280;11441;57.164;-2.120;2023-07-08T08:19:25;101112.56;;;18.44;100.00
22550;BME280;11441;57.164;-2.120;2023-07-08T08:21:52;101114.56;;;18.54;100.00
22550;BME280;11441;57.164;-2.120;2023-07-08T08:24:19;101124.13;;;18.57;100.00
22550;BME280;11441;57.164;-2.120;2023-07-08T08:26:45;101132.47;;;18.46;100.00
22550;BME280;11441;57.164;-2.120;2023-07-08T08:29:13;101130.09;;;18.37;100.00
22550;BME280;11441;57.164;-2.120;2023-07-08T08:31:40;101134.09;;;18.43;100.00
22550;BME280;11441;57.164;-2.120;2023-07-08T08:34:07;101122.94;;;18.51;100.00
22550;BME280;11441;57.164;-2.120;2023-07-08T08:36:34;101127.72;;;18.43;100.00
22550;BME280;11441;57.164;-2.120;2023-07-08T08:39:01;101123.34;;;18.31;100.00
22550;BME280;11441;57.164;-2.120;2023-07-08T08:41:34;101130.13;;;18.44;100.00
22550;BME280;11441;57.164;-2.120;2023-07-08T08:44:02;101138.47;;;18.55;100.00
22550;BME280;11441;57.164;-2.120;2023-07-08T08:49:27;101131.69;;;18.56;100.00
22550;BME280;11441;57.164;-2.120;2023-07-08T08:51:58;101124.13;;;18.64;100.00
22550;BME280;11441;57.164;-2.120;2023-07-08T08:54:25;101131.69;;;18.49;100.00
22550;BME280;11441;57.164;-2.120;2023-07-08T08:59:42;101136.44;;;18.74;100.00
22550;BME280;11441;57.164;-2.120;2023-07-08T09:05:19;101134.06;;;18.69;100.00
22550;BME280;11441;57.164;-2.120;2023-07-08T09:08:04;101138.06;;;18.60;100.00
22550;BME280;11441;57.164;-2.120;2023-07-08T09:10:48;101132.09;;;18.65;100.00
22550;BME280;11441;57.164;-2.120;2023-07-08T09:13:24;101131.66;;;18.78;100.00
22550;BME280;11441;57.164;-2.120;2023-07-08T09:16:05;101127.69;;;18.64;100.00
22550;BME280;11441;57.164;-2.120;2023-07-08T09:18:38;101132.09;;;18.83;100.00
22550;BME280;11441;57.164;-2.120;2023-07-08T09:21:17;101132.47;;;18.82;100.00
22550;BME280;11441;57.164;-2.120;2023-07-08T09:23:47;101135.63;;;18.91;100.00
22550;BME280;11441;57.164;-2.120;2023-07-08T09:26:21;101136.06;;;18.90;100.00
22550;BME280;11441;57.164;-2.120;2023-07-08T09:28:49;101122.13;;;18.64;100.00
22550;BME280;11441;57.164;-2.120;2023-07-08T09:31:28;101132.44;;;18.93;100.00
22550;BME280;11441;57.164;-2.120;2023-07-08T09:34:07;101129.22;;;19.05;100.00
22550;BME280;11441;57.164;-2.120;2023-07-08T09:36:39;101131.66;;;18.78;100.00
22550;BME280;11441;57.164;-2.120;2023-07-08T09:39:16;101129.63;;;19.03;100.00
22550;BME280;11441;57.164;-2.120;2023-07-08T09:41:46;101136.38;;;19.13;100.00
22550;BME280;11441;57.164;-2.120;2023-07-08T09:46:43;101141.22;;;18.80;100.00
22550;BME280;11441;57.164;-2.120;2023-07-08T09:49:23;101134.06;;;18.69;100.00
22550;BME280;11441;57.164;-2.120;2023-07-08T09:51:51;101147.19;;;19.00;100.00
22550;BME280;11441;57.164;-2.120;2023-07-08T09:54:23;101144.78;;;19.10;100.00
22550;BME280;11441;57.164;-2.120;2023-07-08T09:59:52;101152.66;;;19.33;100.00
22550;BME280;11441;57.164;-2.120;2023-07-08T10:04:46;101160.31;;;19.21;100.00
22550;BME280;11441;57.164;-2.120;2023-07-08T10:07:16;101147.97;;;19.08;100.00
22550;BME280;11441;57.164;-2.120;2023-07-08T10:09:47;101158.31;;;19.22;100.00
22550;BME280;11441;57.164;-2.120;2023-07-08T10:12:16;101163.84;;;19.33;100.00
22550;BME280;11441;57.164;-2.120;2023-07-08T10:14:47;101171.44;;;19.32;100.00
22550;BME280;11441;57.164;-2.120;2023-07-08T10:17:16;101161.09;;;19.22;100.00
22550;BME280;11441;57.164;-2.120;2023-07-08T10:19:44;101173.06;;;19.12;100.00
22550;BME280;11441;57.164;-2.120;2023-07-08T10:22:31;101162.34;;;18.99;100.00
22550;BME280;11441;57.164;-2.120;2023-07-08T10:27:35;101163.81;;;19.36;100.00
22550;BME280;11441;57.164;-2.120;2023-07-08T10:35:26;101160.59;;;19.56;100.00
22550;BME280;11441;57.164;-2.120;2023-07-08T10:40:39;101148.06;;;19.89;100.00
22550;BME280;11441;57.164;-2.120;2023-07-08T11:00:01;101163.19;;;19.92;100.00
22550;BME280;11441;57.164;-2.120;2023-07-08T11:08:22;101169.59;;;19.96;100.00
22550;BME280;11441;57.164;-2.120;2023-07-08T11:11:13;101172.06;;;19.76;100.00
22550;BME280;11441;57.164;-2.120;2023-07-08T11:13:54;101168.31;;;20.04;100.00
22550;BME280;11441;57.164;-2.120;2023-07-08T11:16:29;101170.81;;;19.88;100.00
22550;BME280;11441;57.164;-2.120;2023-07-08T11:19:11;101177.59;;;19.87;100.00
22550;BME280;11441;57.164;-2.120;2023-07-08T11:21:43;101162.38;;;19.95;100.00
22550;BME280;11441;57.164;-2.120;2023-07-08T11:26:58;101163.09;;;20.10;100.00
22550;BME280;11441;57.164;-2.120;2023-07-08T11:29:46;101151.09;;;20.13;100.00
22550;BME280;11441;57.164;-2.120;2023-07-08T11:32:17;101158.16;;;20.28;100.00
22550;BME280;11441;57.164;-2.120;2023-07-08T11:34:48;101154.31;;;20.08;100.00
22550;BME280;11441;57.164;-2.120;2023-07-08T11:37:18;101161.03;;;20.21;100.00
22550;BME280;11441;57.164;-2.120;2023-07-08T11:42:46;101150.94;;;20.34;100.00
22550;BME280;11441;57.164;-2.120;2023-07-08T11:45:31;101166.13;;;20.33;100.00
22550;BME280;11441;57.164;-2.120;2023-07-08T11:48:17;101160.41;;;20.48;100.00
22550;BME280;11441;57.164;-2.120;2023-07-08T11:51:04;101164.28;;;20.61;100.00
22550;BME280;11441;57.164;-2.120;2023-07-08T11:53:37;101170.88;;;20.40;100.00
22550;BME280;11441;57.164;-2.120;2023-07-08T11:56:20;101164.00;;;20.48;100.00
22550;BME280;11441;57.164;-2.120;2023-07-08T12:09:01;101176.25;;;20.69;100.00
22550;BME280;11441;57.164;-2.120;2023-07-08T12:11:45;101179.06;;;20.65;100.00
22550;BME280;11441;57.164;-2.120;2023-07-08T12:14:31;101176.72;;;20.57;100.00
22550;BME280;11441;57.164;-2.120;2023-07-08T12:16:58;101167.47;;;20.67;100.00
22550;BME280;11441;57.164;-2.120;2023-07-08T12:19:28;101175.34;;;20.79;100.00
22550;BME280;11441;57.164;-2.120;2023-07-08T12:22:00;101177.78;;;20.77;100.00
22550;BME280;11441;57.164;-2.120;2023-07-08T12:24:27;101173.97;;;20.49;100.00
22550;BME280;11441;57.164;-2.120;2023-07-08T12:26:54;101178.69;;;20.60;100.00
22550;BME280;11441;57.164;-2.120;2023-07-08T12:29:22;101168.00;;;20.47;100.00
22550;BME280;11441;57.164;-2.120;2023-07-08T12:31:49;101178.69;;;20.60;100.00
22550;BME280;11441;57.164;-2.120;2023-07-08T12:34:17;101182.28;;;20.64;100.00
22550;BME280;11441;57.164;-2.120;2023-07-08T12:36:45;101186.41;;;20.48;100.00
22550;BME280;11441;57.164;-2.120;2023-07-08T12:39:33;101197.03;;;20.71;100.00
22550;BME280;11441;57.164;-2.120;2023-07-08T12:42:02;101197.03;;;20.71;100.00
22550;BME280;11441;57.164;-2.120;2023-07-08T12:44:31;101188.03;;;20.91;100.00
22550;BME280;11441;57.164;-2.120;2023-07-08T12:47:02;101184.38;;;20.98;100.00
22550;BME280;11441;57.164;-2.120;2023-07-08T12:49:29;101197.41;;;21.15;100.00
22550;BME280;11441;57.164;-2.120;2023-07-08T12:51:56;101191.22;;;21.31;100.00
22550;BME280;11441;57.164;-2.120;2023-07-08T12:54:23;101208.31;;;21.06;100.00
22550;BME280;11441;57.164;-2.120;2023-07-08T12:56:50;101205.00;;;20.73;100.00
22550;BME280;11441;57.164;-2.120;2023-07-08T12:59:20;101207.81;;;21.15;100.00
22550;BME280;11441;57.164;-2.120;2023-07-08T13:01:49;101212.59;;;21.14;100.00
22550;BME280;11441;57.164;-2.120;2023-07-08T13:04:17;101205.34;;;21.20;100.00
22550;BME280;11441;57.164;-2.120;2023-07-08T13:06:45;101219.22;;;21.31;100.00
22550;BME280;11441;57.164;-2.120;2023-07-08T13:11:57;101214.84;;;20.92;100.00
22550;BME280;11441;57.164;-2.120;2023-07-08T13:14:25;101229.31;;;20.83;100.00
22550;BME280;11441;57.164;-2.120;2023-07-08T13:17:14;101225.44;;;21.12;100.00
22550;BME280;11441;57.164;-2.120;2023-07-08T13:19:42;101235.84;;;21.11;100.00
22550;BME280;11441;57.164;-2.120;2023-07-08T13:22:17;101222.84;;;20.90;100.00
22550;BME280;11441;57.164;-2.120;2023-07-08T13:24:45;101230.25;;;21.11;100.00
22550;BME280;11441;57.164;-2.120;2023-07-08T13:27:18;101244.22;;;21.15;100.00
22550;BME280;11441;57.164;-2.120;2023-07-08T13:29:46;101235.94;;;21.00;100.00
22550;BME280;11441;57.164;-2.120;2023-07-08T13:32:13;101230.22;;;21.15;100.00
22550;BME280;11441;57.164;-2.120;2023-07-08T13:34:41;101230.66;;;20.61;100.00
22550;BME280;11441;57.164;-2.120;2023-07-08T13:37:11;101235.44;;;20.60;100.00
22550;BME280;11441;57.164;-2.120;2023-07-08T13:39:44;101228.16;;;20.77;100.00
22550;BME280;11441;57.164;-2.120;2023-07-08T13:42:11;101243.09;;;21.05;100.00
22550;BME280;11441;57.164;-2.120;2023-07-08T13:44:43;101229.53;;;21.00;100.00
22550;BME280;11441;57.164;-2.120;2023-07-08T13:47:31;101220.22;;;21.14;100.00
22550;BME280;11441;57.164;-2.120;2023-07-08T13:50:07;101214.44;;;21.28;100.00
22550;BME280;11441;57.164;-2.120;2023-07-08T13:52:43;101229.91;;;21.02;100.00
22550;BME280;11441;57.164;-2.120;2023-07-08T13:55:17;101216.31;;;21.42;100.00
22550;BME280;11441;57.164;-2.120;2023-07-08T13:57:59;101225.06;;;21.51;100.00
22550;BME280;11441;57.164;-2.120;2023-07-08T14:00:30;101226.47;;;21.28;100.00
22550;BME280;11441;57.164;-2.120;2023-07-08T14:02:58;101227.22;;;21.33;100.00
22550;BME280;11441;57.164;-2.120;2023-07-08T14:05:25;101233.81;;;21.15;100.00